createdAt,value
2023-03-25T00:00:18.827Z,4.33
2023-03-25T00:03:22.387Z,5.87
2023-03-25T00:06:25.006Z,6.40
2023-03-25T00:09:29.024Z,9.13
2023-03-25T00:12:31.798Z,8.17
2023-03-25T00:15:34.648Z,8.33
2023-03-25T00:18:37.499Z,9.50
2023-03-25T00:21:40.108Z,7.00
2023-03-25T00:24:45.348Z,7.93
2023-03-25T00:27:50.938Z,9.23
2023-03-25T00:30:53.801Z,10.63
2023-03-25T00:33:57.987Z,9.67
2023-03-25T00:37:00.564Z,6.23
2023-03-25T00:40:05.886Z,8.23
2023-03-25T00:43:08.485Z,5.97
2023-03-25T00:46:11.298Z,9.67
2023-03-25T00:49:14.006Z,6.97
2023-03-25T00:52:18.169Z,5.83
2023-03-25T00:55:22.370Z,7.23
2023-03-25T00:58:25.000Z,8.47
2023-03-25T01:01:29.566Z,8.90
2023-03-25T01:04:32.236Z,7.77
2023-03-25T01:07:35.606Z,5.90
2023-03-25T01:10:39.565Z,6.97
2023-03-25T01:13:42.126Z,7.73
2023-03-25T01:16:45.450Z,5.83
2023-03-25T01:19:48.039Z,6.57
2023-03-25T01:22:50.839Z,10.00
2023-03-25T01:25:54.755Z,8.40
2023-03-25T01:28:57.445Z,7.30
2023-03-25T01:32:00.280Z,7.17
2023-03-25T01:35:04.451Z,8.77
2023-03-25T01:38:07.030Z,6.70
2023-03-25T01:41:11.854Z,9.33
2023-03-25T01:44:47.847Z,7.73
2023-03-25T01:47:58.363Z,10.67
2023-03-25T01:51:06.133Z,9.67
2023-03-25T01:54:08.890Z,5.77
2023-03-25T01:57:17.709Z,5.67
2023-03-25T02:00:20.674Z,11.83
2023-03-25T02:03:25.267Z,13.93
2023-03-25T02:06:33.233Z,10.20
2023-03-25T02:09:35.844Z,7.90
2023-03-25T02:12:40.770Z,8.43
2023-03-25T02:15:59.990Z,8.60
2023-03-25T02:19:24.734Z,10.90
2023-03-25T02:22:43.536Z,7.97
2023-03-25T02:26:09.805Z,13.27
2023-03-25T02:29:23.988Z,7.73
2023-03-25T02:32:46.657Z,9.00
2023-03-25T02:36:07.468Z,7.60
2023-03-25T02:39:20.926Z,7.90
2023-03-25T02:42:27.727Z,6.00
2023-03-25T02:45:33.461Z,10.37
2023-03-25T02:48:41.580Z,11.63
2023-03-25T02:51:49.631Z,8.83
2023-03-25T02:54:57.967Z,10.57
2023-03-25T02:58:05.158Z,9.17
2023-03-25T03:01:10.063Z,13.70
2023-03-25T03:04:12.833Z,9.50
2023-03-25T03:07:24.272Z,8.63
2023-03-25T03:10:35.870Z,12.53
2023-03-25T03:13:53.011Z,11.30
2023-03-25T03:17:04.185Z,10.63
2023-03-25T03:20:18.081Z,10.17
2023-03-25T03:23:27.203Z,12.00
2023-03-25T03:26:38.987Z,10.93
2023-03-25T03:29:49.488Z,10.40
2023-03-25T03:32:57.825Z,8.20
2023-03-25T03:36:04.444Z,7.70
2023-03-25T03:39:16.695Z,7.30
2023-03-25T03:42:26.838Z,9.07
2023-03-25T03:45:34.578Z,8.07
2023-03-25T03:48:41.717Z,7.60
2023-03-25T03:51:50.221Z,7.53
2023-03-25T03:54:57.615Z,9.07
2023-03-25T03:58:06.134Z,8.33
2023-03-25T04:01:11.769Z,5.73
2023-03-25T04:04:16.798Z,9.70
2023-03-25T04:07:22.761Z,10.30
2023-03-25T04:10:34.770Z,6.57
2023-03-25T04:13:43.412Z,6.23
2023-03-25T04:16:46.436Z,6.90
2023-03-25T04:19:53.501Z,5.63
2023-03-25T04:22:56.159Z,7.90
2023-03-25T04:26:02.596Z,8.03
2023-03-25T04:29:07.463Z,7.63
2023-03-25T04:32:10.339Z,9.77
2023-03-25T04:35:12.990Z,7.30
2023-03-25T04:38:18.076Z,7.53
2023-03-25T04:41:20.682Z,9.33
2023-03-25T04:44:25.964Z,5.60
2023-03-25T04:47:28.987Z,5.40
2023-03-25T04:50:32.198Z,7.27
2023-03-25T04:53:34.871Z,8.23
2023-03-25T04:56:37.633Z,5.43
2023-03-25T04:59:41.888Z,7.77
2023-03-25T05:02:46.851Z,6.37
2023-03-25T05:05:49.558Z,7.37
2023-03-25T05:08:52.259Z,5.63
2023-03-25T05:11:55.962Z,6.53
2023-03-25T05:14:59.879Z,7.53
2023-03-25T05:18:02.955Z,9.83
2023-03-25T05:21:05.834Z,6.60
2023-03-25T05:24:10.200Z,7.13
2023-03-25T05:27:12.821Z,5.20
2023-03-25T05:30:17.100Z,5.23
2023-03-25T05:33:20.092Z,8.37
2023-03-25T05:36:24.959Z,5.70
2023-03-25T05:39:27.569Z,5.87
2023-03-25T05:42:30.136Z,5.90
2023-03-25T05:45:35.881Z,10.53
2023-03-25T05:48:41.266Z,5.53
2023-03-25T05:51:45.095Z,6.90
2023-03-25T05:54:51.775Z,3.20
2023-03-25T05:57:54.497Z,7.67
2023-03-25T06:00:59.355Z,9.57
2023-03-25T06:04:02.998Z,11.47
2023-03-25T06:07:13.926Z,8.40
2023-03-25T06:10:18.268Z,6.63
2023-03-25T06:13:21.220Z,8.07
2023-03-25T06:16:27.837Z,8.83
2023-03-25T06:19:30.618Z,9.57
2023-03-25T06:22:33.947Z,4.43
2023-03-25T06:25:37.092Z,6.77
2023-03-25T06:28:39.674Z,6.10
2023-03-25T06:31:43.671Z,7.90
2023-03-25T06:34:46.283Z,8.53
2023-03-25T06:37:50.352Z,10.50
2023-03-25T06:40:52.918Z,8.90
2023-03-25T06:43:55.509Z,7.93
2023-03-25T06:47:00.547Z,6.37
2023-03-25T06:50:03.298Z,8.93
2023-03-25T06:53:06.234Z,6.87
2023-03-25T06:56:09.534Z,6.30
2023-03-25T06:59:12.118Z,10.13
2023-03-25T07:02:16.465Z,10.13
2023-03-25T07:05:19.165Z,8.17
2023-03-25T07:08:21.799Z,6.70
2023-03-25T07:11:27.859Z,8.63
2023-03-25T07:14:30.654Z,7.30
2023-03-25T07:17:34.638Z,7.37
2023-03-25T07:20:37.305Z,9.87
2023-03-25T07:23:40.007Z,11.30
2023-03-25T07:26:42.616Z,9.03
2023-03-25T07:29:45.460Z,9.57
2023-03-25T07:32:49.425Z,13.50
2023-03-25T07:35:52.290Z,9.57
2023-03-25T07:38:56.968Z,10.07
2023-03-25T07:41:59.851Z,6.20
2023-03-25T07:45:02.413Z,6.33
2023-03-25T07:48:13.458Z,7.87
2023-03-25T07:51:16.138Z,8.00
2023-03-25T07:54:20.633Z,2.90
2023-03-25T07:57:23.317Z,12.87
2023-03-25T08:00:25.878Z,7.53
2023-03-25T08:03:29.968Z,5.07
2023-03-25T08:06:32.737Z,12.90
2023-03-25T08:09:35.356Z,10.40
2023-03-25T08:12:37.964Z,5.57
2023-03-25T08:15:40.864Z,11.53
2023-03-25T08:18:45.027Z,6.77
2023-03-25T08:21:47.909Z,8.37
2023-03-25T08:24:51.350Z,7.37
2023-03-25T08:27:53.924Z,5.33
2023-03-25T08:30:56.670Z,5.17
2023-03-25T08:34:00.746Z,3.47
2023-03-25T08:37:03.310Z,5.27
2023-03-25T08:40:09.103Z,11.17
2023-03-25T08:43:12.197Z,11.63
2023-03-25T08:46:15.135Z,4.90
2023-03-25T08:49:19.117Z,5.10
2023-03-25T08:52:21.731Z,9.50
2023-03-25T08:55:24.690Z,6.97
2023-03-25T08:58:27.699Z,4.53
2023-03-25T09:01:30.847Z,7.10
2023-03-25T09:04:34.821Z,4.60
2023-03-25T09:07:37.983Z,6.70
2023-03-25T09:10:40.963Z,4.53
2023-03-25T09:13:43.595Z,5.73
2023-03-25T09:16:46.174Z,8.73
2023-03-25T09:19:50.852Z,8.50
2023-03-25T09:22:54.781Z,7.27
2023-03-25T09:26:03.740Z,6.57
2023-03-25T09:29:06.378Z,11.97
2023-03-25T09:32:09.180Z,9.40
2023-03-25T09:35:13.334Z,7.70
2023-03-25T09:38:15.940Z,5.80
2023-03-25T09:41:32.674Z,4.67
2023-03-25T09:44:40.184Z,3.33
2023-03-25T09:47:54.577Z,6.13
2023-03-25T09:51:03.851Z,3.77
2023-03-25T09:54:19.789Z,4.13
2023-03-25T09:57:27.355Z,4.67
2023-03-25T10:00:30.305Z,4.17
2023-03-25T10:03:38.500Z,2.77
2023-03-25T10:06:49.763Z,3.20
2023-03-25T10:09:59.441Z,4.67
2023-03-25T10:13:12.337Z,3.50
2023-03-25T10:16:28.109Z,4.93
2023-03-25T10:19:44.529Z,2.80
2023-03-25T10:23:04.982Z,2.63
2023-03-25T10:26:12.927Z,4.57
2023-03-25T10:29:20.805Z,6.50
2023-03-25T10:32:33.359Z,6.73
2023-03-25T10:35:41.596Z,5.13
2023-03-25T10:38:49.133Z,6.20
2023-03-25T10:41:56.357Z,6.47
2023-03-25T10:44:59.022Z,3.70
2023-03-25T10:48:08.475Z,7.97
2023-03-25T10:51:13.176Z,9.33
2023-03-25T10:54:18.994Z,8.13
2023-03-25T10:57:25.987Z,2.83
2023-03-25T11:00:30.408Z,5.43
2023-03-25T11:03:35.345Z,9.07
2023-03-25T11:06:40.793Z,11.47
2023-03-25T11:09:44.762Z,13.53
2023-03-25T11:12:48.282Z,5.63
2023-03-25T11:15:54.730Z,11.03
2023-03-25T11:19:01.667Z,7.30
2023-03-25T11:22:11.675Z,8.27
2023-03-25T11:25:21.890Z,8.93
2023-03-25T11:28:37.516Z,13.57
2023-03-25T11:31:42.993Z,11.63
2023-03-25T11:34:48.874Z,9.53
2023-03-25T11:37:58.274Z,7.77
2023-03-25T11:41:02.237Z,8.20
2023-03-25T11:44:06.861Z,4.37
2023-03-25T11:47:11.887Z,7.83
2023-03-25T11:50:23.081Z,7.17
2023-03-25T11:53:27.804Z,4.97
2023-03-25T11:56:36.520Z,5.50
2023-03-25T11:59:44.424Z,3.90
2023-03-25T12:02:47.086Z,3.13
2023-03-25T12:05:59.607Z,1.23
2023-03-25T12:09:05.031Z,3.60
2023-03-25T12:12:41.966Z,6.77
2023-03-25T12:15:55.984Z,4.27
2023-03-25T12:19:11.894Z,2.27
2023-03-25T12:22:27.361Z,1.63
2023-03-25T12:25:42.679Z,2.30
2023-03-25T12:29:08.458Z,2.73
2023-03-25T12:32:25.036Z,3.57
2023-03-25T12:35:35.549Z,2.60
2023-03-25T12:38:50.385Z,1.60
2023-03-25T12:42:05.700Z,3.97
2023-03-25T12:45:29.614Z,2.03
2023-03-25T12:48:46.945Z,3.97
2023-03-25T12:51:58.969Z,4.83
2023-03-25T12:55:21.101Z,4.50
2023-03-25T12:58:40.705Z,4.87
2023-03-25T13:01:54.666Z,6.40
2023-03-25T13:05:15.870Z,5.40
2023-03-25T13:08:25.320Z,10.37
2023-03-25T13:11:36.628Z,5.10
2023-03-25T13:14:44.700Z,6.03
2023-03-25T13:17:52.646Z,6.17
2023-03-25T13:21:06.893Z,11.43
2023-03-25T13:24:20.067Z,7.33
2023-03-25T13:27:24.280Z,6.93
2023-03-25T13:30:32.620Z,4.73
2023-03-25T13:33:40.676Z,5.60
2023-03-25T13:36:46.218Z,8.97
2023-03-25T13:40:01.197Z,7.17
2023-03-25T13:43:08.395Z,6.37
2023-03-25T13:46:14.936Z,8.57
2023-03-25T13:49:24.347Z,10.80
2023-03-25T13:52:31.734Z,7.30
2023-03-25T13:55:38.086Z,5.67
2023-03-25T13:58:58.003Z,9.67
2023-03-25T14:02:30.017Z,7.43
2023-03-25T14:06:10.289Z,11.33
2023-03-25T14:09:45.529Z,7.23
2023-03-25T14:12:52.051Z,8.87
2023-03-25T14:16:00.437Z,9.67
2023-03-25T14:19:06.193Z,10.80
2023-03-25T14:22:17.933Z,8.87
2023-03-25T14:25:23.167Z,9.00
2023-03-25T14:28:37.302Z,9.17
2023-03-25T14:31:39.987Z,9.37
2023-03-25T14:34:43.080Z,10.63
2023-03-25T14:37:48.465Z,3.90
2023-03-25T14:41:03.064Z,6.20
2023-03-25T14:44:20.478Z,4.87
2023-03-25T14:47:35.197Z,3.00
2023-03-25T14:50:38.193Z,7.40
2023-03-25T14:53:49.175Z,4.47
2023-03-25T14:56:57.295Z,6.97
2023-03-25T15:00:09.654Z,5.40
2023-03-25T15:03:14.166Z,3.43
2023-03-25T15:06:18.574Z,4.03
2023-03-25T15:09:23.404Z,3.57
2023-03-25T15:12:27.187Z,5.53
2023-03-25T15:15:53.804Z,6.10
2023-03-25T15:19:02.311Z,3.33
2023-03-25T15:22:23.889Z,4.67
2023-03-25T15:25:27.948Z,3.73
2023-03-25T15:28:43.895Z,1.83
2023-03-25T15:31:57.638Z,6.13
2023-03-25T15:35:29.126Z,4.27
2023-03-25T15:38:53.387Z,1.80
2023-03-25T15:42:29.831Z,6.27
2023-03-25T15:46:10.502Z,3.27
2023-03-25T15:49:33.920Z,5.03
2023-03-25T15:53:03.937Z,4.70
2023-03-25T15:56:10.173Z,7.20
2023-03-25T15:59:30.089Z,4.67
2023-03-25T16:02:37.093Z,3.93
2023-03-25T16:05:46.075Z,4.60
2023-03-25T16:08:50.626Z,3.10
2023-03-25T16:11:54.065Z,4.87
2023-03-25T16:14:58.047Z,3.47
2023-03-25T16:18:03.189Z,3.07
2023-03-25T16:21:06.031Z,4.47
2023-03-25T16:24:13.755Z,4.17
2023-03-25T16:27:23.762Z,3.37
2023-03-25T16:30:33.546Z,5.27
2023-03-25T16:33:41.123Z,5.70
2023-03-25T16:36:44.977Z,3.87
2023-03-25T16:39:53.290Z,3.60
2023-03-25T16:43:05.384Z,5.07
2023-03-25T16:46:12.006Z,4.10
2023-03-25T16:49:18.986Z,4.10
2023-03-25T16:52:27.032Z,4.70
2023-03-25T16:55:32.480Z,5.10
2023-03-25T16:58:37.492Z,7.33
2023-03-25T17:01:44.860Z,5.33
2023-03-25T17:04:48.240Z,5.33
2023-03-25T17:07:58.072Z,3.97
2023-03-25T17:11:01.077Z,4.97
2023-03-25T17:14:08.381Z,3.80
2023-03-25T17:17:32.948Z,4.57
2023-03-25T17:20:40.058Z,4.13
2023-03-25T17:23:46.733Z,4.00
2023-03-25T17:26:57.976Z,5.87
2023-03-25T17:30:15.335Z,6.87
2023-03-25T17:33:38.921Z,7.10
2023-03-25T17:36:45.242Z,5.57
2023-03-25T17:39:50.051Z,9.13
2023-03-25T17:42:53.119Z,7.93
2023-03-25T17:45:55.701Z,4.30
2023-03-25T17:49:00.579Z,2.30
2023-03-25T17:52:03.499Z,3.37
2023-03-25T17:55:07.252Z,1.93
2023-03-25T17:58:10.237Z,2.50
2023-03-25T18:01:13.773Z,2.30
2023-03-25T18:04:18.232Z,2.57
2023-03-25T18:07:21.341Z,3.07
2023-03-25T18:10:26.712Z,3.37
2023-03-25T18:13:29.400Z,3.87
2023-03-25T18:16:32.364Z,2.00
2023-03-25T18:19:36.318Z,2.80
2023-03-25T18:22:38.908Z,2.03
2023-03-25T18:25:41.959Z,6.53
2023-03-25T18:28:46.233Z,3.03
2023-03-25T18:31:49.184Z,5.10
2023-03-25T18:34:53.178Z,2.87
2023-03-25T18:37:55.954Z,3.73
2023-03-25T18:40:58.578Z,3.87
2023-03-25T18:44:01.212Z,2.40
2023-03-25T18:47:03.855Z,8.23
2023-03-25T18:50:26.287Z,4.57
2023-03-25T18:53:30.336Z,3.90
2023-03-25T18:56:33.203Z,5.33
2023-03-25T18:59:35.756Z,5.87
2023-03-25T19:02:38.418Z,4.40
2023-03-25T19:05:42.437Z,4.60
2023-03-25T19:08:45.992Z,4.10
2023-03-25T19:11:48.620Z,5.20
2023-03-25T19:14:51.204Z,4.60
2023-03-25T19:17:54.441Z,4.10
2023-03-25T19:20:58.476Z,3.30
2023-03-25T19:24:01.133Z,5.53
2023-03-25T19:27:03.735Z,5.27
2023-03-25T19:30:07.610Z,3.60
2023-03-25T19:33:11.224Z,5.20
2023-03-25T19:36:18.785Z,3.90
2023-03-25T19:39:22.732Z,4.10
2023-03-25T19:42:25.457Z,4.53
2023-03-25T19:45:32.452Z,6.37
2023-03-25T19:48:36.139Z,4.60
2023-03-25T19:51:42.108Z,4.83
2023-03-25T19:54:44.894Z,2.07
2023-03-25T19:57:47.749Z,9.13
2023-03-25T20:00:51.212Z,6.57
2023-03-25T20:03:53.841Z,6.77
2023-03-25T20:06:57.852Z,5.87
2023-03-25T20:10:09.669Z,9.63
2023-03-25T20:13:21.458Z,9.87
2023-03-25T20:16:24.111Z,10.77
2023-03-25T20:19:26.897Z,9.93
2023-03-25T20:22:30.959Z,13.23
2023-03-25T20:25:33.606Z,10.23
2023-03-25T20:28:37.218Z,8.07
2023-03-25T20:31:39.910Z,8.77
2023-03-25T20:34:42.829Z,12.23
2023-03-25T20:37:48.820Z,14.83
2023-03-25T20:40:54.672Z,12.77
2023-03-25T20:43:57.288Z,15.53
2023-03-25T20:46:59.995Z,12.00
2023-03-25T20:50:02.683Z,11.77
2023-03-25T20:53:06.727Z,12.60
2023-03-25T20:56:09.324Z,7.00
2023-03-25T20:59:13.865Z,13.03
2023-03-25T21:02:16.923Z,7.63
2023-03-25T21:05:19.683Z,12.07
2023-03-25T21:08:25.801Z,8.97
2023-03-25T21:11:28.447Z,8.43
2023-03-25T21:14:31.116Z,13.00
2023-03-25T21:17:33.740Z,11.63
2023-03-25T21:20:36.492Z,15.00
2023-03-25T21:23:42.818Z,7.20
2023-03-25T21:26:45.403Z,13.63
2023-03-25T21:29:48.805Z,13.83
2023-03-25T21:32:51.458Z,14.63
2023-03-25T21:35:54.642Z,14.20
2023-03-25T21:39:00.529Z,12.13
2023-03-25T21:42:10.176Z,16.27
2023-03-25T21:45:16.395Z,12.50
2023-03-25T21:48:19.632Z,10.57
2023-03-25T21:51:22.246Z,12.60
2023-03-25T21:54:26.456Z,8.57
2023-03-25T21:57:30.469Z,8.23
2023-03-25T22:00:33.224Z,5.80
2023-03-25T22:03:37.261Z,12.57
2023-03-25T22:06:40.019Z,10.13
2023-03-25T22:09:44.029Z,15.93
2023-03-25T22:12:46.602Z,10.70
2023-03-25T22:15:49.156Z,10.67
2023-03-25T22:18:52.181Z,10.63
2023-03-25T22:21:54.747Z,9.83
2023-03-25T22:24:58.689Z,11.23
2023-03-25T22:28:01.280Z,6.47
2023-03-25T22:31:09.793Z,11.50
2023-03-25T22:34:14.930Z,16.07
2023-03-25T22:37:17.766Z,11.13
2023-03-25T22:40:23.162Z,10.20
2023-03-25T22:43:25.903Z,10.43
2023-03-25T22:46:28.749Z,11.47
2023-03-25T22:49:31.548Z,11.70
2023-03-25T22:52:34.216Z,15.63
2023-03-25T22:55:38.434Z,13.87
2023-03-25T22:58:41.652Z,11.73
2023-03-25T23:01:44.418Z,10.70
2023-03-25T23:04:47.204Z,7.37
2023-03-25T23:07:49.762Z,14.83
2023-03-25T23:10:53.926Z,10.50
2023-03-25T23:13:58.933Z,10.13
2023-03-25T23:17:01.505Z,18.00
2023-03-25T23:20:08.368Z,12.73
2023-03-25T23:23:11.050Z,14.00
2023-03-25T23:26:19.725Z,15.63
2023-03-25T23:29:22.510Z,13.03
2023-03-25T23:32:25.221Z,12.77
2023-03-25T23:35:27.928Z,18.13
2023-03-25T23:38:31.531Z,9.17
2023-03-25T23:41:36.206Z,10.87
2023-03-25T23:44:38.994Z,14.27
2023-03-25T23:47:41.583Z,20.73
2023-03-25T23:50:47.165Z,15.57
2023-03-25T23:53:51.715Z,15.87
2023-03-25T23:56:55.784Z,22.77
2023-03-25T23:59:58.927Z,16.80
